Flight Track Log - Related Links

Times and Time Zones

All times are in EDT time to prevent confusion due to time zone crossing. See the N172KD flight status page for this flight to view local times or setup timezone preferences in your user account.

Time Position Orientation Groundspeed Altitude Reporting Facility
EDT Latitude Longitude Course Direction KTS MPH feet Rate Location/Type
Sat 09:15:53 AM 37.6833 -85.7833 90° East 114 131 3,800  Level Louisville TRACON
Sat 09:17:12 AM 37.6825 -85.7333 91° East 113 130 4,400 429 Climbing Indianapolis Center
Sat 09:18:13 AM 37.6867 -85.6953 82° East 111 128 4,800 439 Climbing Indianapolis Center
Sat 09:19:00 AM 37.6833 -85.7253 90° East  Level FlightAware Approximate
Sat 09:19:15 AM 37.6906 -85.6564 83° East 111 128 5,300  Level Indianapolis Center
Sat 09:20:00 AM 37.6833 -85.6870 90° East  Level FlightAware Approximate
Sat 09:20:17 AM 37.6939 -85.6183 84° East 110 127 5,700  Level Indianapolis Center
Sat 09:21:00 AM 37.6833 -85.6488 90° East  Level FlightAware Approximate
Sat 09:21:19 AM 37.6981 -85.5736 83° East 107 123 6,300  Level Indianapolis Center
Sat 09:22:21 AM 37.7011 -85.5389 84° East 102 117 6,700 339 Climbing Indianapolis Center
Sat 09:23:23 AM 37.7044 -85.5014 84° East 105 121 7,000 145 Climbing Indianapolis Center
Sat 09:24:25 AM 37.7072 -85.4600 85° East 116 133 7,000  Level Indianapolis Center
Sat 09:25:26 AM 37.7181 -85.4197 71° East 120 138 7,000  Level Indianapolis Center
Sat 09:26:28 AM 37.7300 -85.3800 69° East 120 138 7,000  Level Indianapolis Center
Sat 09:27:30 AM 37.7422 -85.3417 68° East 118 136 7,000  Level Indianapolis Center
Sat 09:28:32 AM 37.7536 -85.2942 73° East 120 138 7,000  Level Indianapolis Center
Sat 09:29:34 AM 37.7644 -85.2539 71° East 120 138 7,000 -48 Level Indianapolis Center
Sat 09:30:36 AM 37.7739 -85.2136 73° East 120 138 6,900 -48 Descending Indianapolis Center
Sat 09:31:38 AM 37.7844 -85.1703 73° East 119 137 6,900  Level Indianapolis Center
Sat 09:32:40 AM 37.7939 -85.1308 73° East 117 135 6,900  Level Indianapolis Center
Sat 09:33:42 AM 37.8044 -85.0903 72° East 119 137 6,900  Level Indianapolis Center
Sat 09:34:43 AM 37.8147 -85.0467 73° East 120 138 6,900  Level Indianapolis Center
Sat 09:35:45 AM 37.8264 -85.0064 70° East 122 140 6,900  Level Indianapolis Center
Sat 09:36:47 AM 37.8361 -84.9667 73° East 119 137 6,900  Level Indianapolis Center
Sat 09:37:49 AM 37.8481 -84.9250 70° East 123 142 6,900  Level Indianapolis Center
Sat 09:38:51 AM 37.8589 -84.8847 71° East 122 140 6,900 48 Level Indianapolis Center
Sat 09:39:53 AM 37.8683 -84.8456 73° East 119 137 7,000 48 Climbing Indianapolis Center
Sat 09:40:55 AM 37.8822 -84.7986 69° East 122 140 7,000  Level Indianapolis Center
Sat 09:41:57 AM 37.8931 -84.7583 71° East 121 139 7,000  Level Indianapolis Center
Sat 09:42:58 AM 37.9031 -84.7192 72° East 118 136 7,000  Level Indianapolis Center
Sat 09:44:00 AM 37.9122 -84.6822 73° East 117 135 7,000  Level Indianapolis Center
Sat 09:45:02 AM 37.9239 -84.6350 73° East 117 135 7,000  Level Indianapolis Center
Sat 09:46:04 AM 37.9344 -84.5931 72° East 119 137 7,000  Level Indianapolis Center
Sat 09:47:06 AM 37.9450 -84.5544 71° East 119 137 7,000  Level Indianapolis Center
Sat 09:48:07 AM 37.9556 -84.5119 73° East 121 139 7,000  Level Indianapolis Center
Sat 09:49:09 AM 37.9636 -84.4722 76° East 118 136 7,000  Level Indianapolis Center
Sat 09:50:11 AM 37.9678 -84.4289 83° East 121 139 7,000  Level Indianapolis Center
Sat 09:51:13 AM 37.9706 -84.3872 85° East 121 139 7,000  Level Indianapolis Center
Sat 09:52:15 AM 37.9761 -84.3450 81° East 121 139 7,000  Level Indianapolis Center
Sat 09:53:17 AM 37.9831 -84.2956 80° East 122 140 7,000  Level Indianapolis Center
Sat 09:54:18 AM 37.9903 -84.2528 78° East 123 142 7,000  Level Indianapolis Center
Sat 09:55:20 AM 37.9969 -84.2111 79° East 122 140 7,000  Level Indianapolis Center
Sat 09:56:22 AM 38.0025 -84.1675 81° East 124 143 7,000  Level Indianapolis Center
Sat 09:57:24 AM 38.0081 -84.1250 81° East 123 142 7,000  Level Indianapolis Center
Sat 09:58:25 AM 38.0128 -84.0814 82° East 125 144 7,000  Level Indianapolis Center
Sat 09:59:27 AM 38.0181 -84.0308 82° East 124 143 7,000  Level Indianapolis Center
Sat 10:00:29 AM 38.0228 -83.9883 82° East 123 142 7,000  Level Indianapolis Center
Sat 10:01:31 AM 38.0286 -83.9450 80° East 123 142 7,000  Level Indianapolis Center
Sat 10:02:32 AM 38.0353 -83.9022 79° East 124 143 7,000  Level Indianapolis Center
Sat 10:03:34 AM 38.0408 -83.8586 81° East 124 143 7,000  Level Indianapolis Center
Sat 10:04:36 AM 38.0464 -83.8158 81° East 123 142 7,000  Level Indianapolis Center
Sat 10:05:38 AM 38.0528 -83.7714 80° East 125 144 7,000  Level Indianapolis Center
Sat 10:06:39 AM 38.0600 -83.7211 80° East 125 144 7,000  Level Indianapolis Center
Sat 10:07:41 AM 38.0642 -83.6792 83° East 122 140 7,000  Level Indianapolis Center
Sat 10:08:43 AM 38.0694 -83.6339 82° East 127 146 7,000  Level Indianapolis Center
Sat 10:09:45 AM 38.0758 -83.5919 79° East 124 143 7,000  Level Indianapolis Center
Sat 10:10:46 AM 38.0811 -83.5497 81° East 122 140 7,000  Level Indianapolis Center
Sat 10:11:48 AM 38.0861 -83.5072 81° East 122 140 7,000  Level Indianapolis Center
Sat 10:12:50 AM 38.0911 -83.4636 82° East 125 144 7,000  Level Indianapolis Center
Sat 10:13:51 AM 38.0978 -83.4131 80° East 124 143 7,000  Level Indianapolis Center
Sat 10:14:53 AM 38.1019 -83.3708 83° East 122 140 7,000  Level Indianapolis Center
Sat 10:15:55 AM 38.1075 -83.3292 80° East 121 139 7,000  Level Indianapolis Center
Sat 10:16:56 AM 38.1128 -83.2858 81° East 122 140 7,000  Level Indianapolis Center
Sat 10:17:58 AM 38.1175 -83.2425 82° East 122 140 7,000  Level Indianapolis Center
Sat 10:18:59 AM 38.1228 -83.1992 81° East 123 142 7,000  Level Indianapolis Center
Sat 10:20:01 AM 38.1289 -83.1592 79° East 119 137 7,000  Level Indianapolis Center
Sat 10:21:03 AM 38.1333 -83.1075 84° East 124 143 7,000  Level Indianapolis Center
Sat 10:22:04 AM 38.1389 -83.0672 80° East 119 137 7,000  Level Indianapolis Center
Sat 10:23:06 AM 38.1433 -83.0233 83° East 122 140 7,000  Level Indianapolis Center
Sat 10:24:08 AM 38.1483 -82.9794 82° East 126 145 7,000  Level Indianapolis Center
Sat 10:25:09 AM 38.1539 -82.9389 80° East 120 138 7,000  Level Indianapolis Center
Sat 10:26:11 AM 38.1603 -82.8958 79° East 121 139 7,000  Level Indianapolis Center
Sat 10:27:13 AM 38.1672 -82.8542 78° East 121 139 7,000  Level Indianapolis Center
Sat 10:28:14 AM 38.1758 -82.8039 78° East 122 140 7,000  Level Indianapolis Center
Sat 10:29:16 AM 38.1833 -82.7625 77° East 121 139 7,000  Level Indianapolis Center
Sat 10:30:18 AM 38.1906 -82.7197 78° East 123 142 7,000  Level Indianapolis Center
Sat 10:31:19 AM 38.1992 -82.6767 76° East 125 144 7,000  Level Indianapolis Center
Sat 10:32:21 AM 38.2050 -82.6347 80° East 121 139 7,000  Level Indianapolis Center
Sat 10:33:23 AM 38.2119 -82.5922 78° East 122 140 7,000  Level Indianapolis Center
Sat 10:34:24 AM 38.2200 -82.5486 77° East 126 145 7,000  Level Indianapolis Center
Sat 10:35:26 AM 38.2283 -82.4978 78° East 126 145 7,000  Level Indianapolis Center
Sat 10:36:28 AM 38.2347 -82.4617 77° East 121 139 7,000  Level Indianapolis Center
Sat 10:37:30 AM 38.2431 -82.4136 78° East 125 144 7,000  Level Indianapolis Center
Sat 10:38:31 AM 38.2511 -82.3675 77° East 124 143 7,000  Level Indianapolis Center
Sat 10:39:33 AM 38.2581 -82.3256 78° East 122 140 7,000  Level Indianapolis Center
Sat 10:40:35 AM 38.2661 -82.2811 77° East 127 146 7,000  Level Indianapolis Center
Sat 10:41:37 AM 38.2722 -82.2369 80° East 127 146 7,000  Level Indianapolis Center
Sat 10:42:38 AM 38.2800 -82.1967 76° East 120 138 7,000  Level Indianapolis Center
Sat 10:43:40 AM 38.2872 -82.1531 78° East 124 143 7,000  Level Indianapolis Center
Sat 10:44:42 AM 38.2931 -82.1103 80° East 124 143 7,000  Level Indianapolis Center
Sat 10:45:43 AM 38.3008 -82.0689 77° East 121 139 7,000  Level Indianapolis Center
Sat 10:46:45 AM 38.3092 -82.0203 78° East 118 136 7,000  Level Indianapolis Center
Sat 10:47:47 AM 38.3156 -81.9792 79° East 118 136 7,000  Level Indianapolis Center
Sat 10:48:49 AM 38.3217 -81.9383 79° East 117 135 7,000  Level Indianapolis Center
Sat 10:49:50 AM 38.3289 -81.8972 77° East 118 136 7,000  Level Indianapolis Center
Sat 10:50:52 AM 38.3353 -81.8561 79° East 119 137 7,000  Level Indianapolis Center
Sat 10:51:54 AM 38.3414 -81.8158 79° East 117 135 7,000  Level Indianapolis Center
Sat 10:52:56 AM 38.3486 -81.7744 77° East 119 137 7,000  Level Indianapolis Center
Sat 10:53:58 AM 38.3656 -81.7272 65° Northeast 122 140 7,000  Level Indianapolis Center
Sat 10:54:59 AM 38.3792 -81.6864 67° East 124 143 7,000  Level Indianapolis Center
Sat 10:56:01 AM 38.3933 -81.6472 65° Northeast 123 142 7,000  Level Indianapolis Center
Sat 10:57:03 AM 38.4078 -81.6081 65° Northeast 123 142 7,000  Level Indianapolis Center
Sat 10:58:05 AM 38.4217 -81.5683 66° East 123 142 7,000  Level Indianapolis Center
Sat 10:59:06 AM 38.4361 -81.5278 66° East 124 143 7,000  Level Indianapolis Center
Sat 11:00:08 AM 38.4494 -81.4875 67° East 125 144 7,000  Level Indianapolis Center
Sat 11:01:10 AM 38.4667 -81.4400 65° Northeast 123 142 7,000  Level Indianapolis Center
Sat 11:02:12 AM 38.4803 -81.4011 66° East 122 140 7,000  Level Indianapolis Center
Sat 11:03:14 AM 38.4928 -81.3614 68° East 121 139 7,000  Level Indianapolis Center
Sat 11:04:16 AM 38.5061 -81.3228 66° East 120 138 7,000  Level Indianapolis Center
Sat 11:05:17 AM 38.5183 -81.2828 69° East 120 138 7,000  Level Indianapolis Center
Sat 11:06:19 AM 38.5317 -81.2433 67° East 122 140 7,000  Level Indianapolis Center
Sat 11:07:21 AM 38.5472 -81.1958 67° East 121 139 7,000  Level Indianapolis Center
Sat 11:08:23 AM 38.5608 -81.1572 66° East 121 139 7,000  Level Indianapolis Center
Sat 11:09:25 AM 38.5747 -81.1181 66° East 121 139 7,000  Level Indianapolis Center
Sat 11:10:27 AM 38.5886 -81.0783 66° East 122 140 7,000  Level Indianapolis Center
Sat 11:11:28 AM 38.6022 -81.0378 67° East 123 142 7,000  Level Indianapolis Center
Sat 11:12:30 AM 38.6153 -80.9975 67° East 124 143 7,000  Level Indianapolis Center
Sat 11:13:32 AM 38.6289 -80.9581 66° East 123 142 7,000  Level Indianapolis Center
Sat 11:14:34 AM 38.6450 -80.9106 67° East 121 139 7,000  Level Indianapolis Center
Sat 11:15:36 AM 38.6575 -80.8694 69° East 122 140 7,000  Level Indianapolis Center
Sat 11:16:37 AM 38.6714 -80.8303 66° East 123 142 7,000  Level Indianapolis Center
Sat 11:17:39 AM 38.6847 -80.7897 67° East 124 143 7,000  Level Indianapolis Center
Sat 11:18:41 AM 38.7000 -80.7497 64° Northeast 124 143 7,000  Level Indianapolis Center
Sat 11:19:43 AM 38.7125 -80.7092 68° East 124 143 7,000  Level Indianapolis Center
Sat 11:20:45 AM 38.7256 -80.6697 67° East 122 140 7,000  Level Indianapolis Center
Sat 11:21:46 AM 38.7411 -80.6228 67° East 120 138 7,000  Level Indianapolis Center
Sat 11:22:48 AM 38.7539 -80.5839 67° East 119 137 7,000  Level Indianapolis Center
Sat 11:23:50 AM 38.7661 -80.5450 68° East 118 136 7,000  Level Indianapolis Center
Sat 11:24:52 AM 38.7794 -80.5039 67° East 122 140 7,000  Level Indianapolis Center
Sat 11:25:53 AM 38.7942 -80.4653 64° Northeast 124 143 7,000  Level Indianapolis Center
Sat 11:26:55 AM 38.8050 -80.4247 71° East 120 138 7,000  Level Indianapolis Center
Sat 11:27:57 AM 38.8189 -80.3858 65° Northeast 121 139 7,000 Level Indianapolis Center
Sat 11:29:00 AM 38.8302 -80.3437 71° East  Level FlightAware Approximate
Sat 11:36:00 AM 38.9063 -80.0615 70° East  Level FlightAware Approximate
Sat 11:37:00 AM 38.9178 -80.0217 70° East  Level FlightAware Approximate
Sat 11:38:00 AM 38.9293 -79.9819 70° East  Level FlightAware Approximate
Sat 11:38:56 AM 38.9550 -79.9561 70° East 133 153 7,100  Level Washington Center
Sat 11:39:00 AM 38.9408 -79.9420 70° East  Level FlightAware Approximate
Sat 11:39:54 AM 38.9689 -79.9197 64° Northeast 127 146 7,100  Level Washington Center
Sat 11:40:00 AM 38.9523 -79.9021 70° East  Level FlightAware Approximate
Sat 11:40:55 AM 38.9786 -79.8803 72° East 117 135 7,100  Level Washington Center
Sat 11:41:00 AM 38.9637 -79.8623 70° East  Level FlightAware Approximate
Sat 11:41:55 AM 38.9925 -79.8408 66° East 117 135 7,100  Level Washington Center
Sat 11:42:00 AM 38.9752 -79.8224 70° East  Level FlightAware Approximate
Sat 11:42:56 AM 39.0025 -79.7986 73° East 106 122 7,100  Level Washington Center
Sat 11:43:00 AM 38.9866 -79.7825 70° East  Level FlightAware Approximate
Sat 11:43:54 AM 39.0164 -79.7594 65° Northeast 106 122 7,100  Level Washington Center
Sat 11:44:00 AM 38.9980 -79.7426 70° East  Level FlightAware Approximate
Sat 11:44:55 AM 39.0281 -79.7200 69° East 106 122 7,100  Level Washington Center
Sat 11:45:56 AM 39.0419 -79.6808 65° Northeast 106 122 7,100  Level Washington Center
Sat 11:46:54 AM 39.0539 -79.6333 72° East 119 137 7,100  Level Washington Center
Sat 11:47:55 AM 39.0658 -79.5939 69° East 119 137 7,100 -49 Level Washington Center
Sat 11:48:56 AM 39.0814 -79.5572 61° Northeast 119 137 7,000 -50 Descending Washington Center
Sat 11:49:56 AM 39.0911 -79.5150 73° East 119 137 7,000  Level Washington Center
Sat 11:50:54 AM 39.1008 -79.4753 72° East 119 137 7,000  Level Washington Center
Sat 11:51:55 AM 39.1083 -79.4356 76° East 119 137 7,000  Level Washington Center
Sat 11:52:56 AM 39.1181 -79.3933 73° East 119 137 7,000  Level Washington Center
Sat 11:53:54 AM 39.1300 -79.3486 71° East 119 137 7,000  Level Washington Center
Sat 11:54:55 AM 39.1353 -79.3058 81° East 124 143 7,000  Level Washington Center
Sat 11:55:55 AM 39.1489 -79.2719 63° Northeast 119 137 7,000  Level Washington Center
Sat 11:56:56 AM 39.1564 -79.2294 77° East 124 143 7,000  Level Washington Center
Sat 11:57:54 AM 39.1722 -79.1900 63° Northeast 124 143 7,000  Level Washington Center
Sat 11:58:55 AM 39.1839 -79.1506 69° East 124 143 7,000  Level Washington Center
Sat 11:59:56 AM 39.1933 -79.1081 74° East 124 143 7,000  Level Washington Center
Sat 12:00:56 PM 39.2072 -79.0658 67° East 124 143 7,000  Level Washington Center
Sat 12:01:56 PM 39.2167 -79.0261 73° East 124 143 7,000  Level Washington Center
Sat 12:02:54 PM 39.2261 -78.9864 73° East 124 143 7,000  Level Washington Center
Sat 12:03:56 PM 39.2294 -78.9436 84° East 118 136 7,000  Level Washington Center
Sat 12:04:56 PM 39.2369 -78.9011 77° East 118 136 7,000  Level Washington Center
Sat 12:05:56 PM 39.2400 -78.8583 85° East 118 136 7,000  Level Washington Center
Sat 12:06:54 PM 39.2475 -78.8186 76° East 118 136 7,000  Level Washington Center
Sat 12:07:54 PM 39.2528 -78.7786 80° East 118 136 7,000  Level Washington Center
Sat 12:08:55 PM 39.2581 -78.7358 81° East 123 142 7,000  Level Washington Center
Sat 12:09:55 PM 39.2631 -78.7011 79° East 118 136 7,000  Level Washington Center
Sat 12:10:53 PM 39.2728 -78.6506 76° East 118 136 7,000  Level Washington Center
Sat 12:11:54 PM 39.2778 -78.6106 81° East 118 136 7,000  Level Washington Center
Sat 12:12:56 PM 39.2853 -78.5681 77° East 123 142 7,000  Level Washington Center
Sat 12:13:54 PM 39.2925 -78.5256 78° East 123 142 7,000  Level Washington Center
Sat 12:14:55 PM 39.2956 -78.4828 85° East 123 142 7,000  Level Washington Center
Sat 12:15:56 PM 39.3008 -78.4428 80° East 123 142 7,000  Level Washington Center
Sat 12:16:54 PM 39.3078 -78.4028 77° East 123 142 7,000  Level Washington Center
Sat 12:17:55 PM 39.3153 -78.3600 77° East 123 142 7,000  Level Washington Center
Sat 12:18:55 PM 39.3203 -78.3200 81° East 123 142 7,000  Level Washington Center
Sat 12:19:56 PM 39.3253 -78.2800 81° East 123 142 7,000  Level Washington Center
Sat 12:20:56 PM 39.3325 -78.2372 78° East 123 142 7,000  Level Washington Center
Sat 12:21:54 PM 39.3356 -78.1944 85° East 123 142 7,000  Level Washington Center
Sat 12:22:54 PM 39.3425 -78.1544 77° East 123 142 7,000  Level Washington Center
Sat 12:24:30 PM 39.3500 -78.0833 82° East 120 138 7,000 -192 Level Potomac TRACON
Sat 12:25:30 PM 39.3500 -78.0500 90° East 121 139 6,500 -500 Descending Potomac TRACON
Sat 12:26:30 PM 39.3667 -78.0000 67° East 123 142 6,000 -496 Descending Potomac TRACON
Sat 12:27:31 PM 39.3667 -77.9500 90° East 128 147 5,500 -496 Descending Potomac TRACON
Sat 12:28:31 PM 39.3833 -77.9167 57° Northeast 131 151 5,000 -263 Descending Potomac TRACON
Sat 12:29:25 PM 39.3833 -77.8667 90° East 128 147 5,000  Level Potomac TRACON
Sat 12:30:25 PM 39.3833 -77.8167 90° East 125 144 5,000  Level Potomac TRACON
Sat 12:31:19 PM 39.4000 -77.7833 57° Northeast 123 142 5,000  Level Potomac TRACON
Sat 12:32:19 PM 39.4000 -77.7500 90° East 123 142 5,000  Level Potomac TRACON
Sat 12:33:19 PM 39.4000 -77.7000 90° East 124 143 5,000  Level Potomac TRACON
Sat 12:34:19 PM 39.4000 -77.6667 90° East 123 142 5,000  Level Potomac TRACON
Sat 12:35:19 PM 39.4167 -77.6167 67° East 124 143 5,000  Level Potomac TRACON
Sat 12:36:20 PM 39.4167 -77.5667 90° East 123 142 5,000  Level Potomac TRACON
Sat 12:37:20 PM 39.4167 -77.5333 90° East 124 143 5,000  Level Potomac TRACON
Sat 12:38:20 PM 39.4333 -77.4833 67° East 123 142 5,000  Level Potomac TRACON
Sat 12:39:20 PM 39.4333 -77.4333 90° East 121 139 5,000  Level Potomac TRACON
Sat 12:40:14 PM 39.4500 -77.4000 57° Northeast 120 138 5,000  Level Potomac TRACON
Sat 12:41:14 PM 39.4500 -77.3667 90° East 119 137 5,000  Level Potomac TRACON
Sat 12:42:20 PM 39.4500 -77.3167 90° East 122 140 5,000  Level Potomac TRACON
Sat 12:43:14 PM 39.4500 -77.2667 90° East 124 143 5,000  Level Potomac TRACON
Sat 12:44:14 PM 39.4667 -77.2333 57° Northeast 121 139 5,000  Level Potomac TRACON
Sat 12:45:14 PM 39.4667 -77.1833 90° East 125 144 5,000  Level Potomac TRACON
Sat 12:46:14 PM 39.4667 -77.1500 90° East 118 136 5,000  Level Potomac TRACON
Sat 12:47:14 PM 39.4833 -77.1000 67° East 120 138 5,000 -50 Level Potomac TRACON
Sat 12:48:14 PM 39.4833 -77.0667 90° East 121 139 4,900 -298 Descending Potomac TRACON
Sat 12:49:15 PM 39.4833 -77.0167 90° East 129 148 4,400 -545 Descending Potomac TRACON
Sat 12:50:15 PM 39.5000 -76.9667 67° East 134 154 3,800 -150 Descending Potomac TRACON
Sat 12:51:15 PM 39.4833 -76.9333 123° Southeast 117 135 4,100 100 Climbing Potomac TRACON
Sat 12:52:15 PM 39.4667 -76.8833 113° Southeast 121 139 4,000 -350 Descending Potomac TRACON
Sat 12:53:15 PM 39.4667 -76.8500 90° East 119 137 3,400 -500 Descending Potomac TRACON
Sat 12:54:15 PM 39.4500 -76.8167 123° Southeast 112 129 3,000 -300 Descending Potomac TRACON
Sat 12:55:15 PM 39.4333 -76.7667 113° Southeast 111 128 2,800 -100 Descending Potomac TRACON
Sat 12:56:15 PM 39.4333 -76.7333 90° East 109 125 2,800 -100 Level Potomac TRACON
Sat 12:57:15 PM 39.4167 -76.7000 123° Southeast 113 130 2,600 -200 Descending Potomac TRACON
Sat 12:58:15 PM 39.4167 -76.6667 90° East 113 130 2,400 -200 Descending Potomac TRACON
Sat 12:59:15 PM 39.4000 -76.6167 113° Southeast 114 131 2,200 -198 Descending Potomac TRACON
Sat 01:00:16 PM 39.4000 -76.5833 90° East 109 125 2,000 -298 Descending Potomac TRACON
Sat 01:01:16 PM 39.3833 -76.5500 123° Southeast 112 129 1,600 -350 Descending Potomac TRACON
Sat 01:02:16 PM 39.3667 -76.5167 123° Southeast 101 116 1,300 -200 Descending Potomac TRACON
Sat 01:03:16 PM 39.3667 -76.4833 90° East 94 108 1,200 -211 Descending Potomac TRACON
Sat 01:04:10 PM 39.3500 -76.4667 142° Southeast 76 87 900 -368 Descending Potomac TRACON
Sat 01:05:10 PM 39.3500 -76.4333 90° East 66 76 500 -400 Descending Potomac TRACON
Sat 01:07:00 PM 39.3257 -76.4138 113° Southeast  Level Estimated
Sat 01:14:00 PM 39.3257 -76.4138 113° Southeast  Level Estimated
Sat 01:15:00 PM 39.3257 -76.4138 113° Southeast  Level Estimated
Sat 01:16:00 PM 39.3257 -76.4138 113° Southeast  Level Estimated

Login

Don't have an account? Register now (free) for customized features, flight alerts, and more!